createdAt,value
2018-01-22T00:00:40.041Z,67.56
2018-01-22T00:03:07.600Z,67.93
2018-01-22T00:05:35.109Z,69.76
2018-01-22T00:08:02.720Z,69.39
2018-01-22T00:10:30.229Z,69.03
2018-01-22T00:12:57.745Z,69.68
2018-01-22T00:15:25.502Z,69.39
2018-01-22T00:17:53.263Z,70.76
2018-01-22T00:20:20.841Z,71.05
2018-01-22T00:22:48.380Z,70.79
2018-01-22T00:25:15.892Z,70.99
2018-01-22T00:27:43.433Z,70.35
2018-01-22T00:30:10.955Z,70.53
2018-01-22T00:32:38.924Z,70.30
2018-01-22T00:35:06.483Z,70.63
2018-01-22T00:37:34.042Z,70.50
2018-01-22T00:40:14.901Z,70.33
2018-01-22T00:42:42.417Z,70.30
2018-01-22T00:45:10.133Z,69.87
2018-01-22T00:47:37.687Z,70.13
2018-01-22T00:50:05.274Z,70.00
2018-01-22T00:52:32.826Z,70.68
2018-01-22T00:55:00.371Z,69.11
2018-01-22T00:57:27.964Z,69.91
2018-01-22T00:59:55.489Z,69.75
2018-01-22T01:02:23.009Z,69.47
2018-01-22T01:04:50.544Z,70.46
2018-01-22T01:07:18.063Z,70.47
2018-01-22T01:09:45.625Z,70.24
2018-01-22T01:12:13.193Z,71.33
2018-01-22T01:14:40.744Z,70.68
2018-01-22T01:17:08.285Z,70.92
2018-01-22T01:19:35.912Z,70.58
2018-01-22T01:22:03.512Z,69.82
2018-01-22T01:24:31.080Z,70.28
2018-01-22T01:26:58.638Z,71.49
2018-01-22T01:29:26.225Z,70.52
2018-01-22T01:31:53.777Z,70.58
2018-01-22T01:34:21.560Z,69.92
2018-01-22T01:36:49.082Z,71.49
2018-01-22T01:39:16.638Z,69.40
2018-01-22T01:41:44.197Z,68.36
2018-01-22T01:44:12.781Z,68.00
2018-01-22T01:46:40.354Z,67.71
2018-01-22T01:49:07.898Z,69.08
2018-01-22T01:51:35.409Z,69.27
2018-01-22T01:54:02.957Z,69.36
2018-01-22T01:56:30.481Z,68.99
2018-01-22T01:58:58.236Z,69.29
2018-01-22T02:01:25.787Z,68.14
2018-01-22T02:03:53.296Z,67.91
2018-01-22T02:06:20.837Z,67.90
2018-01-22T02:08:48.353Z,67.59
2018-01-22T02:11:16.021Z,68.66
2018-01-22T02:13:43.593Z,68.25
2018-01-22T02:16:11.151Z,67.76
2018-01-22T02:18:38.749Z,67.09
2018-01-22T02:21:06.262Z,66.64
2018-01-22T02:23:33.831Z,67.17
2018-01-22T02:26:01.345Z,67.55
2018-01-22T02:28:28.864Z,68.60
2018-01-22T02:30:56.426Z,68.88
2018-01-22T02:33:23.961Z,68.13
2018-01-22T02:35:51.909Z,69.18
2018-01-22T02:38:19.436Z,70.63
2018-01-22T02:40:46.962Z,70.50
2018-01-22T02:43:14.505Z,70.65
2018-01-22T02:45:42.064Z,70.35
2018-01-22T02:48:09.801Z,70.67
2018-01-22T02:50:37.317Z,70.62
2018-01-22T02:53:04.843Z,70.50
2018-01-22T02:55:32.389Z,69.53
2018-01-22T02:57:59.909Z,68.90
2018-01-22T03:00:27.463Z,69.15
2018-01-22T03:02:54.980Z,67.99
2018-01-22T03:05:22.481Z,68.63
2018-01-22T03:07:50.040Z,68.53
2018-01-22T03:10:17.575Z,67.58
2018-01-22T03:12:45.316Z,67.93
2018-01-22T03:15:12.832Z,68.75
2018-01-22T03:17:40.340Z,67.94
2018-01-22T03:20:07.890Z,69.35
2018-01-22T03:22:35.433Z,69.29
2018-01-22T03:25:02.973Z,68.95
2018-01-22T03:27:30.480Z,67.79
2018-01-22T03:29:58.126Z,68.82
2018-01-22T03:32:25.686Z,68.42
2018-01-22T03:34:53.189Z,68.32
2018-01-22T03:37:21.008Z,69.42
2018-01-22T03:39:48.563Z,68.55
2018-01-22T03:42:16.128Z,67.85
2018-01-22T03:44:43.677Z,67.32
2018-01-22T03:47:11.186Z,66.87
2018-01-22T03:49:39.213Z,67.81
2018-01-22T03:52:06.774Z,67.60
2018-01-22T03:54:34.331Z,66.96
2018-01-22T03:57:01.860Z,67.72
2018-01-22T03:59:29.363Z,67.21
2018-01-22T04:01:57.315Z,66.20
2018-01-22T04:04:24.876Z,66.66
2018-01-22T04:06:52.381Z,67.04
2018-01-22T04:09:19.928Z,66.49
2018-01-22T04:11:47.477Z,66.78
2018-01-22T04:14:15.017Z,66.44
2018-01-22T04:16:42.528Z,66.95
2018-01-22T04:19:10.056Z,68.27
2018-01-22T04:21:37.588Z,67.81
2018-01-22T04:24:05.144Z,68.44
2018-01-22T04:26:32.890Z,69.04
2018-01-22T04:29:00.471Z,69.35
2018-01-22T04:31:28.027Z,68.92
2018-01-22T04:33:55.586Z,68.37
2018-01-22T04:36:23.145Z,70.12
2018-01-22T04:38:50.906Z,69.29
2018-01-22T04:41:18.467Z,69.04
2018-01-22T04:43:45.981Z,69.38
2018-01-22T04:46:13.531Z,69.34
2018-01-22T04:48:41.054Z,69.37
2018-01-22T04:51:08.628Z,68.37
2018-01-22T04:53:36.141Z,69.25
2018-01-22T04:56:03.655Z,68.34
2018-01-22T04:58:31.192Z,67.86
2018-01-22T05:00:58.861Z,68.11
2018-01-22T05:03:26.892Z,67.65
2018-01-22T05:05:54.405Z,67.70
2018-01-22T05:08:21.928Z,67.99
2018-01-22T05:10:49.481Z,67.81
2018-01-22T05:13:16.984Z,67.38
2018-01-22T05:15:44.613Z,67.59
2018-01-22T05:18:12.167Z,67.29
2018-01-22T05:20:39.701Z,67.45
2018-01-22T05:23:07.274Z,68.58
2018-01-22T05:25:34.790Z,68.39
2018-01-22T05:28:02.701Z,68.27
2018-01-22T05:30:30.211Z,68.37
2018-01-22T05:32:57.738Z,69.39
2018-01-22T05:35:25.286Z,68.68
2018-01-22T05:37:52.851Z,68.46
2018-01-22T05:40:20.396Z,68.30
2018-01-22T05:42:47.917Z,68.02
2018-01-22T05:45:15.424Z,68.06
2018-01-22T05:47:42.996Z,67.82
2018-01-22T05:50:10.556Z,67.83
2018-01-22T05:52:38.908Z,67.38
2018-01-22T05:55:06.466Z,67.61
2018-01-22T05:57:34.031Z,67.62
2018-01-22T06:00:01.591Z,67.44
2018-01-22T06:02:29.120Z,67.29
2018-01-22T06:04:57.008Z,67.00
2018-01-22T06:07:24.578Z,67.18
2018-01-22T06:09:52.147Z,66.83
2018-01-22T06:12:19.692Z,66.94
2018-01-22T06:14:47.473Z,67.01
2018-01-22T06:17:15.044Z,67.12
2018-01-22T06:19:42.573Z,66.91
2018-01-22T06:22:10.145Z,67.36
2018-01-22T06:24:37.692Z,66.91
2018-01-22T06:27:05.274Z,66.84
2018-01-22T06:29:33.221Z,67.36
2018-01-22T06:32:00.772Z,66.94
2018-01-22T06:34:28.290Z,66.95
2018-01-22T06:36:55.895Z,66.82
2018-01-22T06:39:23.450Z,66.50
2018-01-22T06:41:51.012Z,66.47
2018-01-22T06:44:18.854Z,67.26
2018-01-22T06:46:46.369Z,66.93
2018-01-22T06:49:13.913Z,66.84
2018-01-22T06:51:41.450Z,67.49
2018-01-22T06:54:09.006Z,67.19
2018-01-22T06:56:36.549Z,67.96
2018-01-22T06:59:04.077Z,67.95
2018-01-22T07:01:31.616Z,67.55
2018-01-22T07:03:59.131Z,67.50
2018-01-22T07:06:26.852Z,68.19
2018-01-22T07:08:54.368Z,68.24
2018-01-22T07:11:21.923Z,68.07
2018-01-22T07:13:49.467Z,68.70
2018-01-22T07:16:16.981Z,69.03
2018-01-22T07:18:44.703Z,68.65
2018-01-22T07:21:12.220Z,69.08
2018-01-22T07:23:39.734Z,69.21
2018-01-22T07:26:07.277Z,70.45
2018-01-22T07:28:34.842Z,69.51
2018-01-22T07:31:02.396Z,69.29
2018-01-22T07:33:29.956Z,70.79
2018-01-22T07:35:57.473Z,71.06
2018-01-22T07:38:25.065Z,70.86
2018-01-22T07:40:53.040Z,70.95
2018-01-22T07:43:20.947Z,72.74
2018-01-22T07:45:48.465Z,72.53
2018-01-22T07:48:16.948Z,73.07
2018-01-22T07:50:44.508Z,73.18
2018-01-22T07:53:12.065Z,73.00
2018-01-22T07:55:39.617Z,72.78
2018-01-22T07:58:07.255Z,72.02
2018-01-22T08:00:40.657Z,71.86
2018-01-22T08:03:08.173Z,71.38
2018-01-22T08:05:35.686Z,72.46
2018-01-22T08:08:03.726Z,71.42
2018-01-22T08:10:31.224Z,70.32
2018-01-22T08:12:59.020Z,70.13
2018-01-22T08:15:26.653Z,71.63
2018-01-22T08:17:54.211Z,69.21
2018-01-22T08:20:21.768Z,70.77
2018-01-22T08:22:49.330Z,70.07
2018-01-22T08:25:17.029Z,69.29
2018-01-22T08:27:44.549Z,71.80
2018-01-22T08:30:12.330Z,70.88
2018-01-22T08:32:39.981Z,70.23
2018-01-22T08:35:07.462Z,71.25
2018-01-22T08:37:35.165Z,70.64
2018-01-22T08:40:02.668Z,73.29
2018-01-22T08:42:30.184Z,74.09
2018-01-22T08:44:57.832Z,73.28
2018-01-22T08:47:25.348Z,71.81
2018-01-22T08:49:53.007Z,70.12
2018-01-22T08:52:20.552Z,73.13
2018-01-22T08:54:48.126Z,71.75
2018-01-22T08:57:15.656Z,71.50
2018-01-22T08:59:43.182Z,72.17
2018-01-22T09:02:14.472Z,72.65
2018-01-22T09:04:42.032Z,70.35
2018-01-22T09:07:09.537Z,70.22
2018-01-22T09:09:37.091Z,72.10
2018-01-22T09:12:04.608Z,73.43
2018-01-22T09:14:32.166Z,72.25
2018-01-22T09:16:59.732Z,70.93
2018-01-22T09:19:27.248Z,71.07
2018-01-22T09:21:54.774Z,71.64
2018-01-22T09:24:22.313Z,72.62
2018-01-22T09:26:49.860Z,72.50
2018-01-22T09:29:17.377Z,71.01
2018-01-22T09:31:45.081Z,71.54
2018-01-22T09:34:12.649Z,70.44
2018-01-22T09:36:40.199Z,70.04
2018-01-22T09:39:09.602Z,69.24
2018-01-22T09:41:37.153Z,70.13
2018-01-22T09:44:04.651Z,68.40
2018-01-22T09:46:32.196Z,70.11
2018-01-22T09:48:59.719Z,68.14
2018-01-22T09:51:27.264Z,68.61
2018-01-22T09:53:54.955Z,69.68
2018-01-22T09:56:22.468Z,69.78
2018-01-22T09:58:49.980Z,69.17
2018-01-22T10:01:18.657Z,70.79
2018-01-22T10:03:46.172Z,70.41
2018-01-22T10:06:13.691Z,69.49
2018-01-22T10:08:41.229Z,69.74
2018-01-22T10:11:08.762Z,68.40
2018-01-22T10:13:36.310Z,67.92
2018-01-22T10:16:03.857Z,67.76
2018-01-22T10:18:31.366Z,67.37
2018-01-22T10:20:58.925Z,67.82
2018-01-22T10:23:26.486Z,67.73
2018-01-22T10:25:54.042Z,67.55
2018-01-22T10:28:21.601Z,67.73
2018-01-22T10:30:49.147Z,67.50
2018-01-22T10:33:16.661Z,67.98
2018-01-22T10:35:44.180Z,68.83
2018-01-22T10:38:11.725Z,68.03
2018-01-22T10:40:39.248Z,67.90
2018-01-22T10:43:06.764Z,67.60
2018-01-22T10:45:34.326Z,67.78
2018-01-22T10:48:01.841Z,67.52
2018-01-22T10:50:29.369Z,68.28
2018-01-22T10:52:56.929Z,67.90
2018-01-22T10:55:24.452Z,67.87
2018-01-22T10:57:51.985Z,68.48
2018-01-22T11:00:19.565Z,68.32
2018-01-22T11:02:47.126Z,68.04
2018-01-22T11:05:14.681Z,68.06
2018-01-22T11:07:42.225Z,68.32
2018-01-22T11:10:09.738Z,68.43
2018-01-22T11:12:37.289Z,68.15
2018-01-22T11:15:04.828Z,67.85
2018-01-22T11:17:32.357Z,69.78
2018-01-22T11:19:59.879Z,69.32
2018-01-22T11:22:27.424Z,68.67
2018-01-22T11:24:54.933Z,68.63
2018-01-22T11:27:22.452Z,68.75
2018-01-22T11:29:50.007Z,68.19
2018-01-22T11:32:17.524Z,67.06
2018-01-22T11:34:45.097Z,67.13
2018-01-22T11:37:15.917Z,67.22
2018-01-22T11:39:43.437Z,66.51
2018-01-22T11:42:10.986Z,66.02
2018-01-22T11:44:38.595Z,66.32
2018-01-22T11:47:06.109Z,66.33
2018-01-22T11:49:33.656Z,65.33
2018-01-22T11:52:01.181Z,65.11
2018-01-22T11:54:28.753Z,65.27
2018-01-22T11:56:56.268Z,65.47
2018-01-22T11:59:23.789Z,64.95
2018-01-22T12:01:51.329Z,64.58
2018-01-22T12:04:18.849Z,64.73
2018-01-22T12:06:46.531Z,65.67
2018-01-22T12:09:14.086Z,65.36
2018-01-22T12:11:41.644Z,64.87
2018-01-22T12:14:09.203Z,64.79
2018-01-22T12:16:36.716Z,64.99
2018-01-22T12:19:04.705Z,64.92
2018-01-22T12:21:32.220Z,64.92
2018-01-22T12:23:59.750Z,65.21
2018-01-22T12:26:27.305Z,65.42
2018-01-22T12:28:54.867Z,65.56
2018-01-22T12:31:22.628Z,66.36
2018-01-22T12:33:50.198Z,65.59
2018-01-22T12:36:17.754Z,65.08
2018-01-22T12:38:45.306Z,65.79
2018-01-22T12:41:12.835Z,67.08
2018-01-22T12:43:40.412Z,67.36
2018-01-22T12:46:07.992Z,66.76
2018-01-22T12:48:35.479Z,66.59
2018-01-22T12:51:03.016Z,65.59
2018-01-22T12:53:30.537Z,66.46
2018-01-22T12:55:58.100Z,66.24
2018-01-22T12:58:25.677Z,66.48
2018-01-22T13:00:53.195Z,66.84
2018-01-22T13:03:20.745Z,67.14
2018-01-22T13:05:48.276Z,66.99
2018-01-22T13:08:15.837Z,67.21
2018-01-22T13:10:43.388Z,67.25
2018-01-22T13:13:10.918Z,68.72
2018-01-22T13:15:38.696Z,68.72
2018-01-22T13:18:06.255Z,68.90
2018-01-22T13:20:34.001Z,68.67
2018-01-22T13:23:01.525Z,68.76
2018-01-22T13:25:29.045Z,69.21
2018-01-22T13:27:56.580Z,70.04
2018-01-22T13:30:24.097Z,70.31
2018-01-22T13:32:51.943Z,70.22
2018-01-22T13:35:19.469Z,69.53
2018-01-22T13:37:46.989Z,70.02
2018-01-22T13:43:18.812Z,68.85
2018-01-22T13:45:46.444Z,70.29
2018-01-22T13:48:14.441Z,70.19
2018-01-22T13:50:42.615Z,69.16
2018-01-22T13:53:10.993Z,69.09
2018-01-22T13:55:38.501Z,68.87
2018-01-22T13:58:07.240Z,69.71
2018-01-22T14:00:34.753Z,69.21
2018-01-22T14:03:02.252Z,69.02
2018-01-22T14:05:29.850Z,68.99
2018-01-22T14:07:57.365Z,69.57
2018-01-22T14:10:25.032Z,69.82
2018-01-22T14:12:52.550Z,68.36
2018-01-22T14:15:20.357Z,68.53
2018-01-22T14:17:47.992Z,69.33
2018-01-22T14:20:15.485Z,69.87
2018-01-22T14:22:43.240Z,69.97
2018-01-22T14:25:10.837Z,69.18
2018-01-22T14:27:38.343Z,68.82
2018-01-22T14:30:05.871Z,68.45
2018-01-22T14:32:33.382Z,68.82
2018-01-22T14:35:01.000Z,68.38
2018-01-22T14:37:28.519Z,68.41
2018-01-22T14:39:56.032Z,68.45
2018-01-22T14:42:23.579Z,70.34
2018-01-22T14:44:51.099Z,70.81
2018-01-22T14:47:18.734Z,70.09
2018-01-22T14:49:46.390Z,70.53
2018-01-22T14:52:13.952Z,69.08
2018-01-22T14:54:41.498Z,69.60
2018-01-22T14:57:09.024Z,69.38
2018-01-22T14:59:37.680Z,69.42
2018-01-22T15:02:05.189Z,69.15
2018-01-22T15:04:32.697Z,69.24
2018-01-22T15:07:00.423Z,68.94
2018-01-22T15:09:27.934Z,68.69
2018-01-22T15:11:55.733Z,69.08
2018-01-22T15:14:23.309Z,68.65
2018-01-22T15:16:50.837Z,68.62
2018-01-22T15:19:18.435Z,68.54
2018-01-22T15:21:46.296Z,68.37
2018-01-22T15:24:14.036Z,68.25
2018-01-22T15:26:41.558Z,68.15
2018-01-22T15:29:09.097Z,68.29
2018-01-22T15:31:36.699Z,68.58
2018-01-22T15:34:04.296Z,69.09
2018-01-22T15:36:32.074Z,68.74
2018-01-22T15:38:59.576Z,68.87
2018-01-22T15:41:27.125Z,68.67
2018-01-22T15:43:54.678Z,68.41
2018-01-22T15:46:22.400Z,68.63
2018-01-22T15:48:49.965Z,68.90
2018-01-22T15:51:17.496Z,68.66
2018-01-22T15:53:45.005Z,68.38
2018-01-22T15:56:12.545Z,68.50
2018-01-22T15:58:40.073Z,68.56
2018-01-22T16:01:07.865Z,68.67
2018-01-22T16:03:35.422Z,68.79
2018-01-22T16:06:02.985Z,69.09
2018-01-22T16:08:30.517Z,68.70
2018-01-22T16:10:58.027Z,69.15
2018-01-22T16:13:25.959Z,68.89
2018-01-22T16:15:53.471Z,68.58
2018-01-22T16:18:20.985Z,68.28
2018-01-22T16:20:48.530Z,68.56
2018-01-22T16:23:16.038Z,68.44
2018-01-22T16:25:43.875Z,68.25
2018-01-22T16:28:11.449Z,68.06
2018-01-22T16:30:38.961Z,68.36
2018-01-22T16:33:06.637Z,68.00
2018-01-22T16:35:34.299Z,68.06
2018-01-22T16:38:01.861Z,68.38
2018-01-22T16:40:29.417Z,68.39
2018-01-22T16:42:57.898Z,68.41
2018-01-22T16:45:25.468Z,68.34
2018-01-22T16:47:57.010Z,68.23
2018-01-22T16:50:24.564Z,69.20
2018-01-22T16:52:52.311Z,68.63
2018-01-22T16:55:20.198Z,68.43
2018-01-22T16:57:47.962Z,68.91
2018-01-22T17:00:16.035Z,68.56
2018-01-22T17:02:43.901Z,68.38
2018-01-22T17:05:11.486Z,68.37
2018-01-22T17:07:39.459Z,68.36
2018-01-22T17:10:07.134Z,68.53
2018-01-22T17:12:34.855Z,68.79
2018-01-22T17:15:02.596Z,69.29
2018-01-22T17:17:30.490Z,69.59
2018-01-22T17:19:58.260Z,69.48
2018-01-22T17:22:26.017Z,69.30
2018-01-22T17:24:53.676Z,69.70
2018-01-22T17:27:21.363Z,69.10
2018-01-22T17:29:49.030Z,68.86
2018-01-22T17:32:16.658Z,68.81
2018-01-22T17:34:44.428Z,68.83
2018-01-22T17:37:12.165Z,68.99
2018-01-22T17:39:39.952Z,69.12
2018-01-22T17:42:07.896Z,70.54
2018-01-22T17:44:36.091Z,69.70
2018-01-22T17:47:04.060Z,69.58
2018-01-22T17:49:31.897Z,69.44
2018-01-22T17:51:59.696Z,69.84
2018-01-22T17:54:27.758Z,69.79
2018-01-22T17:56:55.998Z,70.01
2018-01-22T17:59:23.556Z,69.58
2018-01-22T18:01:51.376Z,69.46
2018-01-22T18:04:19.401Z,69.30
2018-01-22T18:06:47.297Z,68.91
2018-01-22T18:09:15.088Z,69.03
2018-01-22T18:11:42.860Z,68.77
2018-01-22T18:14:11.206Z,69.49
2018-01-22T18:16:39.072Z,69.03
2018-01-22T18:19:06.849Z,68.83
2018-01-22T18:21:34.740Z,69.41
2018-01-22T18:24:02.465Z,69.07
2018-01-22T18:26:31.155Z,69.50
2018-01-22T18:28:59.123Z,69.11
2018-01-22T18:31:26.804Z,69.33
2018-01-22T18:33:54.750Z,69.75
2018-01-22T18:36:22.514Z,69.55
2018-01-22T18:38:50.381Z,69.23
2018-01-22T18:41:18.370Z,69.63
2018-01-22T18:43:46.222Z,69.11
2018-01-22T18:46:14.187Z,69.59
2018-01-22T18:48:41.790Z,69.83
2018-01-22T18:51:09.611Z,69.51
2018-01-22T18:53:37.365Z,70.15
2018-01-22T18:56:05.255Z,69.50
2018-01-22T18:58:33.216Z,68.79
2018-01-22T19:01:01.992Z,68.73
2018-01-22T19:03:29.862Z,68.17
2018-01-22T19:05:57.644Z,67.62
2018-01-22T19:08:25.566Z,67.66
2018-01-22T19:10:53.537Z,67.34
2018-01-22T19:13:21.636Z,67.77
2018-01-22T19:15:49.415Z,67.85
2018-01-22T19:18:18.349Z,66.95
2018-01-22T19:20:46.566Z,67.47
2018-01-22T19:25:49.364Z,67.31
2018-01-22T19:28:17.396Z,66.88
2018-01-22T19:30:45.302Z,67.31
2018-01-22T19:33:13.168Z,67.28
2018-01-22T19:35:41.220Z,67.25
2018-01-22T19:38:09.049Z,66.37
2018-01-22T19:40:37.336Z,66.95
2018-01-22T19:43:05.168Z,66.47
2018-01-22T19:45:33.011Z,66.35
2018-01-22T19:48:01.476Z,66.47
2018-01-22T19:50:29.359Z,66.35
2018-01-22T19:52:57.431Z,66.54
2018-01-22T19:55:28.677Z,66.41
2018-01-22T19:57:56.543Z,67.10
2018-01-22T20:00:24.424Z,67.15
2018-01-22T20:02:52.276Z,67.21
2018-01-22T20:05:20.141Z,66.99
2018-01-22T20:07:48.110Z,67.10
2018-01-22T20:10:16.105Z,66.72
2018-01-22T20:12:43.965Z,67.44
2018-01-22T20:15:11.789Z,67.10
2018-01-22T20:17:39.780Z,67.28
2018-01-22T20:20:07.496Z,67.24
2018-01-22T20:22:35.874Z,66.48
2018-01-22T20:25:04.242Z,67.48
2018-01-22T20:27:32.066Z,67.43
2018-01-22T20:30:00.140Z,66.55
2018-01-22T20:32:28.207Z,66.51
2018-01-22T20:34:56.482Z,66.35
2018-01-22T20:37:24.555Z,66.42
2018-01-22T20:39:52.525Z,65.95
2018-01-22T20:42:21.227Z,65.86
2018-01-22T20:44:48.992Z,66.40
2018-01-22T20:47:17.349Z,66.21
2018-01-22T20:49:45.315Z,65.67
2018-01-22T20:52:13.093Z,65.61
2018-01-22T20:54:40.950Z,65.73
2018-01-22T20:57:09.329Z,66.16
2018-01-22T20:59:37.113Z,65.76
2018-01-22T21:02:05.678Z,66.25
2018-01-22T21:04:34.039Z,65.92
2018-01-22T21:07:03.092Z,66.13
2018-01-22T21:09:30.909Z,65.67
2018-01-22T21:11:58.987Z,65.54
2018-01-22T21:14:27.865Z,65.76
2018-01-22T21:16:55.644Z,65.65
2018-01-22T21:19:24.498Z,65.66
2018-01-22T21:21:52.209Z,65.09
2018-01-22T21:24:20.057Z,65.16
2018-01-22T21:26:47.925Z,65.15
2018-01-22T21:29:15.696Z,64.85
2018-01-22T21:31:43.466Z,65.12
2018-01-22T21:34:11.477Z,64.92
2018-01-22T21:36:39.183Z,64.63
2018-01-22T21:39:07.052Z,64.50
2018-01-22T21:41:35.237Z,64.86
2018-01-22T21:44:02.904Z,64.90
2018-01-22T21:46:30.547Z,64.91
2018-01-22T21:48:58.214Z,64.84
2018-01-22T21:51:25.952Z,64.26
2018-01-22T21:53:53.737Z,64.50
2018-01-22T21:56:21.807Z,63.97
2018-01-22T21:58:49.674Z,63.48
2018-01-22T22:01:17.443Z,63.39
2018-01-22T22:03:45.420Z,63.29
2018-01-22T22:06:13.273Z,63.26
2018-01-22T22:08:41.143Z,63.22
2018-01-22T22:11:09.342Z,62.82
2018-01-22T22:13:37.077Z,63.11
2018-01-22T22:16:05.109Z,62.74
2018-01-22T22:18:33.014Z,62.45
2018-01-22T22:21:01.057Z,62.53
2018-01-22T22:23:29.245Z,62.62
2018-01-22T22:25:57.980Z,62.76
2018-01-22T22:28:25.610Z,62.99
2018-01-22T22:30:53.438Z,62.72
2018-01-22T22:33:22.268Z,62.85
2018-01-22T22:35:51.152Z,62.89
2018-01-22T22:38:19.087Z,62.70
2018-01-22T22:40:46.997Z,62.67
2018-01-22T22:43:14.757Z,63.08
2018-01-22T22:45:42.526Z,62.90
2018-01-22T22:48:10.365Z,63.06
2018-01-22T22:50:37.993Z,63.52
2018-01-22T22:53:06.114Z,63.48
2018-01-22T22:55:33.760Z,63.07
2018-01-22T22:58:01.640Z,64.25
2018-01-22T23:00:29.511Z,64.24
2018-01-22T23:02:57.386Z,64.86
2018-01-22T23:05:24.932Z,64.79
2018-01-22T23:07:52.468Z,64.80
2018-01-22T23:10:21.075Z,64.35
2018-01-22T23:12:48.639Z,64.45
2018-01-22T23:15:16.273Z,64.08
2018-01-22T23:17:43.957Z,63.67
2018-01-22T23:20:11.457Z,63.28
2018-01-22T23:22:38.962Z,63.17
2018-01-22T23:25:06.533Z,62.52
2018-01-22T23:27:34.193Z,61.98
2018-01-22T23:30:01.974Z,61.42
2018-01-22T23:32:29.619Z,61.47
2018-01-22T23:34:57.128Z,61.81
2018-01-22T23:37:24.669Z,61.68
2018-01-22T23:39:52.194Z,61.75
2018-01-22T23:42:19.957Z,62.99
2018-01-22T23:44:47.460Z,63.14
2018-01-22T23:47:14.974Z,64.79
2018-01-22T23:49:42.533Z,63.98
2018-01-22T23:52:10.032Z,63.75
2018-01-22T23:54:37.737Z,63.85
2018-01-22T23:57:05.240Z,63.81
2018-01-22T23:59:32.749Z,63.94
